createdAt,value
2023-01-01T00:00:40.358Z,43.30
2023-01-01T00:03:07.265Z,54.07
2023-01-01T00:05:34.208Z,46.83
2023-01-01T00:08:05.129Z,52.80
2023-01-01T00:10:33.010Z,57.57
2023-01-01T00:13:00.423Z,60.53
2023-01-01T00:15:28.535Z,59.43
2023-01-01T00:17:56.156Z,65.53
2023-01-01T00:20:23.566Z,50.00
2023-01-01T00:22:55.470Z,46.40
2023-01-01T00:25:23.397Z,42.27
2023-01-01T00:27:50.471Z,40.53
2023-01-01T00:30:17.594Z,41.20
2023-01-01T00:32:55.000Z,44.63
2023-01-01T00:35:26.970Z,42.00
2023-01-01T00:37:55.410Z,41.13
2023-01-01T00:40:22.987Z,36.10
2023-01-01T00:42:49.978Z,37.37
2023-01-01T00:45:21.311Z,35.42
2023-01-01T00:47:51.090Z,35.43
2023-01-01T00:50:18.603Z,32.47
2023-01-01T00:52:45.700Z,32.90
2023-01-01T00:55:12.715Z,33.43
2023-01-01T00:57:39.668Z,39.47
2023-01-01T01:00:08.198Z,44.33
2023-01-01T01:02:35.368Z,39.70
2023-01-01T01:05:04.625Z,43.00
2023-01-01T01:07:36.984Z,45.97
2023-01-01T01:10:04.839Z,45.10
2023-01-01T01:12:34.287Z,52.17
2023-01-01T01:15:01.534Z,55.73
2023-01-01T01:17:29.596Z,53.40
2023-01-01T01:19:56.660Z,51.90
2023-01-01T01:22:28.342Z,49.93
2023-01-01T01:24:55.771Z,55.40
2023-01-01T01:27:22.754Z,52.87
2023-01-01T01:29:49.644Z,50.03
2023-01-01T01:32:16.496Z,48.67
2023-01-01T01:34:43.432Z,50.37
2023-01-01T01:37:10.354Z,46.70
2023-01-01T01:39:37.477Z,45.20
2023-01-01T01:42:04.687Z,44.10
2023-01-01T01:44:49.548Z,44.63
2023-01-01T01:47:55.939Z,35.33
2023-01-01T01:50:32.231Z,33.10
2023-01-01T01:53:16.401Z,28.00
2023-01-01T01:55:54.389Z,29.20
2023-01-01T01:58:21.843Z,27.30
2023-01-01T02:00:49.308Z,29.73
2023-01-01T02:03:23.004Z,28.10
2023-01-01T02:05:51.580Z,24.60
2023-01-01T02:08:19.700Z,27.40
2023-01-01T02:10:47.061Z,27.60
2023-01-01T02:13:14.322Z,27.80
2023-01-01T02:16:16.877Z,27.93
2023-01-01T02:18:56.232Z,23.60
2023-01-01T02:21:31.703Z,23.80
2023-01-01T02:24:16.091Z,25.20
2023-01-01T02:26:59.452Z,22.07
2023-01-01T02:29:37.468Z,23.00
2023-01-01T02:32:13.283Z,24.13
2023-01-01T02:34:49.265Z,22.77
2023-01-01T02:37:18.561Z,24.60
2023-01-01T02:39:55.598Z,23.83
2023-01-01T02:42:28.064Z,24.33
2023-01-01T02:44:57.963Z,22.90
2023-01-01T02:47:24.856Z,24.40
2023-01-01T02:50:08.953Z,26.10
2023-01-01T02:53:03.128Z,28.87
2023-01-01T02:55:45.049Z,28.17
2023-01-01T02:58:48.608Z,27.33
2023-01-01T03:02:18.599Z,24.70
2023-01-01T03:05:18.988Z,27.47
2023-01-01T03:08:17.270Z,28.60
2023-01-01T03:11:15.879Z,28.40
2023-01-01T03:14:08.770Z,25.87
2023-01-01T03:17:27.697Z,32.53
2023-01-01T03:19:58.286Z,24.97
2023-01-01T03:25:13.975Z,25.17
2023-01-01T03:27:44.406Z,23.80
2023-01-01T03:30:13.944Z,22.47
2023-01-01T03:33:00.561Z,27.50
2023-01-01T03:35:53.633Z,26.00
2023-01-01T03:38:40.526Z,23.13
2023-01-01T03:41:15.550Z,21.27
2023-01-01T03:44:07.699Z,23.00
2023-01-01T03:46:37.031Z,25.87
2023-01-01T03:49:08.312Z,23.40
2023-01-01T03:52:03.086Z,21.53
2023-01-01T03:54:44.786Z,19.57
2023-01-01T03:57:36.037Z,21.53
2023-01-01T04:00:14.796Z,23.67
2023-01-01T04:03:03.221Z,21.00
2023-01-01T04:05:35.812Z,24.63
2023-01-01T04:08:04.110Z,25.40
2023-01-01T04:10:36.311Z,21.73
2023-01-01T04:13:06.414Z,22.40
2023-01-01T04:15:35.847Z,21.30
2023-01-01T04:18:03.140Z,22.33
2023-01-01T04:20:30.520Z,19.23
2023-01-01T04:23:01.815Z,22.67
2023-01-01T04:25:29.070Z,20.37
2023-01-01T04:27:56.235Z,18.87
2023-01-01T04:30:23.172Z,22.07
2023-01-01T04:32:50.137Z,19.27
2023-01-01T04:35:17.250Z,19.20
2023-01-01T04:37:46.062Z,17.20
2023-01-01T04:40:14.074Z,17.57
2023-01-01T04:42:41.422Z,22.93
2023-01-01T04:45:09.121Z,19.00
2023-01-01T04:47:36.100Z,18.70
2023-01-01T04:50:03.076Z,18.70
2023-01-01T04:52:30.017Z,15.03
2023-01-01T04:54:57.069Z,17.43
2023-01-01T04:57:23.985Z,14.73
2023-01-01T04:59:50.896Z,14.23
2023-01-01T05:02:17.907Z,15.00
2023-01-01T05:04:44.898Z,14.87
2023-01-01T05:07:11.823Z,14.00
2023-01-01T05:09:38.776Z,13.77
2023-01-01T05:12:06.074Z,13.20
2023-01-01T05:14:33.841Z,12.63
2023-01-01T05:17:00.800Z,15.13
2023-01-01T05:19:27.669Z,11.23
2023-01-01T05:21:55.748Z,11.23
2023-01-01T05:24:22.775Z,10.00
2023-01-01T05:26:49.666Z,11.63
2023-01-01T05:29:17.533Z,11.90
2023-01-01T05:31:45.827Z,10.43
2023-01-01T05:34:13.227Z,11.53
2023-01-01T05:36:40.233Z,10.93
2023-01-01T05:39:11.199Z,11.27
2023-01-01T05:41:38.487Z,10.83
2023-01-01T05:44:07.371Z,11.37
2023-01-01T05:46:34.995Z,10.17
2023-01-01T05:49:01.922Z,9.63
2023-01-01T05:53:58.583Z,10.17
2023-01-01T05:56:26.892Z,10.63
2023-01-01T05:58:55.254Z,9.70
2023-01-01T06:01:31.807Z,12.60
2023-01-01T06:03:59.908Z,13.90
2023-01-01T06:06:33.351Z,14.80
2023-01-01T06:09:05.374Z,12.50
2023-01-01T06:11:32.998Z,14.20
2023-01-01T06:14:00.880Z,16.37
2023-01-01T06:16:31.750Z,16.17
2023-01-01T06:18:59.921Z,14.40
2023-01-01T06:21:28.809Z,13.63
2023-01-01T06:23:58.613Z,14.50
2023-01-01T06:26:29.910Z,15.33
2023-01-01T06:28:58.260Z,13.53
2023-01-01T06:31:26.279Z,15.60
2023-01-01T06:33:53.485Z,16.40
2023-01-01T06:36:23.659Z,13.53
2023-01-01T06:38:55.327Z,14.40
2023-01-01T06:41:25.224Z,13.87
2023-01-01T06:43:52.516Z,16.33
2023-01-01T06:46:21.816Z,14.20
2023-01-01T06:48:52.722Z,15.10
2023-01-01T06:51:23.203Z,15.87
2023-01-01T06:53:52.270Z,14.47
2023-01-01T06:56:20.527Z,13.67
2023-01-01T06:58:47.721Z,17.20
2023-01-01T07:01:25.751Z,16.20
2023-01-01T07:04:05.351Z,13.00
2023-01-01T07:06:33.612Z,12.57
2023-01-01T07:09:01.315Z,12.27
2023-01-01T07:11:28.942Z,16.23
2023-01-01T07:13:56.012Z,13.43
2023-01-01T07:16:24.446Z,13.90
2023-01-01T07:18:52.061Z,13.00
2023-01-01T07:21:30.633Z,14.13
2023-01-01T07:24:03.658Z,12.10
2023-01-01T07:26:32.846Z,12.80
2023-01-01T07:29:06.743Z,14.00
2023-01-01T07:31:42.999Z,12.17
2023-01-01T07:34:16.876Z,8.37
2023-01-01T07:36:43.860Z,9.53
2023-01-01T07:39:10.862Z,9.93
2023-01-01T07:41:38.013Z,13.47
2023-01-01T07:44:05.308Z,10.40
2023-01-01T07:46:35.976Z,11.23
2023-01-01T07:49:03.100Z,8.83
2023-01-01T07:51:30.116Z,10.23
2023-01-01T07:54:02.215Z,13.50
2023-01-01T07:56:31.041Z,10.83
2023-01-01T07:58:57.953Z,9.40
2023-01-01T08:01:24.945Z,9.63
2023-01-01T08:03:52.875Z,9.30
2023-01-01T08:06:20.061Z,10.67
2023-01-01T08:08:46.929Z,11.10
2023-01-01T08:11:13.870Z,9.43
2023-01-01T08:13:40.885Z,10.30
2023-01-01T08:16:08.102Z,10.10
2023-01-01T08:18:35.279Z,11.53
2023-01-01T08:21:03.011Z,11.37
2023-01-01T08:23:30.027Z,9.63
2023-01-01T08:26:02.846Z,9.20
2023-01-01T08:28:30.971Z,9.50
2023-01-01T08:30:58.034Z,12.43
2023-01-01T08:33:26.194Z,11.73
2023-01-01T08:35:54.625Z,10.90
2023-01-01T08:38:21.990Z,9.13
2023-01-01T08:40:48.956Z,9.83
2023-01-01T08:43:15.966Z,10.20
2023-01-01T08:45:43.199Z,10.80
2023-01-01T08:48:10.112Z,9.17
2023-01-01T08:50:37.457Z,11.30
2023-01-01T08:53:04.571Z,12.73
2023-01-01T08:55:31.576Z,10.27
2023-01-01T08:57:58.481Z,8.93
2023-01-01T09:00:25.474Z,10.10
2023-01-01T09:02:52.618Z,11.70
2023-01-01T09:05:19.690Z,8.77
2023-01-01T09:07:46.595Z,8.40
2023-01-01T09:10:13.489Z,11.63
2023-01-01T09:12:40.339Z,10.03
2023-01-01T09:15:14.852Z,14.80
2023-01-01T09:17:41.785Z,12.43
2023-01-01T09:20:09.133Z,9.97
2023-01-01T09:22:36.215Z,12.43
2023-01-01T09:25:03.293Z,10.80
2023-01-01T09:27:30.252Z,10.53
2023-01-01T09:29:57.161Z,9.97
2023-01-01T09:32:24.272Z,11.00
2023-01-01T09:34:52.692Z,11.77
2023-01-01T09:37:19.794Z,9.20
2023-01-01T09:39:46.810Z,9.17
2023-01-01T09:42:49.753Z,10.10
2023-01-01T09:45:27.632Z,11.97
2023-01-01T09:48:06.210Z,9.47
2023-01-01T09:50:39.771Z,10.47
2023-01-01T09:53:48.223Z,10.37
2023-01-01T09:56:23.007Z,10.53
2023-01-01T09:58:50.319Z,11.20
2023-01-01T10:01:49.383Z,11.00
2023-01-01T10:05:03.763Z,10.23
2023-01-01T10:07:46.451Z,10.20
2023-01-01T10:10:38.702Z,12.30
2023-01-01T10:13:22.900Z,10.40
2023-01-01T10:16:24.581Z,10.57
2023-01-01T10:18:56.804Z,13.27
2023-01-01T10:21:32.214Z,12.33
2023-01-01T10:24:06.854Z,11.43
2023-01-01T10:26:37.686Z,11.30
2023-01-01T10:29:28.859Z,11.47
2023-01-01T10:31:58.538Z,12.00
2023-01-01T10:34:28.970Z,11.47
2023-01-01T10:37:00.733Z,10.63
2023-01-01T10:39:29.030Z,12.13
2023-01-01T10:41:58.391Z,11.63
2023-01-01T10:44:34.624Z,12.97
2023-01-01T10:47:23.639Z,11.43
2023-01-01T10:50:05.244Z,11.43
2023-01-01T10:52:41.153Z,13.10
2023-01-01T10:55:22.044Z,13.27
2023-01-01T10:57:48.912Z,12.43
2023-01-01T11:00:24.448Z,14.13
2023-01-01T11:03:26.874Z,11.77
2023-01-01T11:06:10.858Z,11.80
2023-01-01T11:08:41.463Z,12.03
2023-01-01T11:11:28.789Z,11.33
2023-01-01T11:13:59.985Z,11.80
2023-01-01T11:16:28.560Z,11.27
2023-01-01T11:19:08.204Z,12.17
2023-01-01T11:21:35.869Z,13.40
2023-01-01T11:24:34.317Z,11.83
2023-01-01T11:27:22.671Z,12.50
2023-01-01T11:29:54.706Z,12.27
2023-01-01T11:32:31.677Z,13.20
2023-01-01T11:35:03.870Z,10.33
2023-01-01T11:37:36.006Z,12.17
2023-01-01T11:40:06.199Z,12.67
2023-01-01T11:42:35.919Z,11.60
2023-01-01T11:45:39.741Z,12.77
2023-01-01T11:48:16.073Z,11.47
2023-01-01T11:50:54.252Z,12.03
2023-01-01T11:53:26.944Z,13.30
2023-01-01T11:56:18.807Z,13.07
2023-01-01T11:58:59.733Z,12.50
2023-01-01T12:01:49.375Z,12.27
2023-01-01T12:04:34.590Z,13.73
2023-01-01T12:07:09.728Z,14.43
2023-01-01T12:10:02.191Z,13.50
2023-01-01T12:12:48.894Z,15.53
2023-01-01T12:15:41.770Z,14.07
2023-01-01T12:18:44.931Z,13.50
2023-01-01T12:21:29.160Z,12.90
2023-01-01T12:23:56.254Z,14.80
2023-01-01T12:26:41.149Z,13.93
2023-01-01T12:29:39.525Z,15.43
2023-01-01T12:32:27.955Z,14.03
2023-01-01T12:35:14.673Z,17.73
2023-01-01T12:38:02.632Z,15.93
2023-01-01T12:41:06.749Z,14.50
2023-01-01T12:43:47.795Z,14.90
2023-01-01T12:46:38.117Z,15.33
2023-01-01T12:49:47.428Z,16.43
2023-01-01T12:52:29.847Z,14.90
2023-01-01T12:55:53.035Z,15.80
2023-01-01T12:58:41.227Z,17.03
2023-01-01T13:01:17.088Z,15.30
2023-01-01T13:04:00.538Z,17.10
2023-01-01T13:06:44.060Z,15.17
2023-01-01T13:09:23.512Z,17.70
2023-01-01T13:11:57.843Z,40.17
2023-01-01T13:14:24.891Z,28.07
2023-01-01T13:16:57.429Z,17.17
2023-01-01T13:19:37.592Z,17.50
2023-01-01T13:22:26.311Z,19.47
2023-01-01T13:25:10.801Z,19.40
2023-01-01T13:28:04.515Z,15.40
2023-01-01T13:30:37.463Z,15.07
2023-01-01T13:33:27.086Z,17.20
2023-01-01T13:36:12.161Z,13.73
2023-01-01T13:38:57.065Z,15.53
2023-01-01T13:41:27.279Z,18.13
2023-01-01T13:43:59.970Z,14.20
2023-01-01T13:51:03.891Z,17.90
2023-01-01T13:54:12.100Z,19.37
2023-01-01T13:57:04.115Z,19.37
2023-01-01T13:59:46.390Z,16.57
2023-01-01T14:02:43.781Z,16.67
2023-01-01T14:05:33.505Z,16.17
2023-01-01T14:08:00.580Z,15.33
2023-01-01T14:10:33.387Z,15.30
2023-01-01T14:13:06.022Z,16.53
2023-01-01T14:15:39.873Z,17.80
2023-01-01T14:18:18.003Z,15.17
2023-01-01T14:20:52.899Z,16.37
2023-01-01T14:23:35.867Z,17.93
2023-01-01T14:26:08.918Z,19.53
2023-01-01T14:28:36.751Z,20.77
2023-01-01T14:31:14.418Z,17.63
2023-01-01T14:33:41.416Z,16.90
2023-01-01T14:36:34.749Z,17.33
2023-01-01T14:39:01.728Z,17.03
2023-01-01T14:41:34.858Z,19.47
2023-01-01T14:44:07.741Z,15.93
2023-01-01T14:46:49.848Z,16.43
2023-01-01T14:49:29.641Z,18.73
2023-01-01T14:52:18.189Z,14.23
2023-01-01T14:54:47.150Z,16.70
2023-01-01T14:57:24.505Z,15.00
2023-01-01T14:59:54.630Z,17.50
2023-01-01T15:02:24.942Z,20.20
2023-01-01T15:04:52.687Z,19.00
2023-01-01T15:07:25.559Z,19.53
2023-01-01T15:09:55.133Z,17.87
2023-01-01T15:12:23.149Z,19.80
2023-01-01T15:14:53.339Z,22.40
2023-01-01T15:17:25.243Z,21.20
2023-01-01T15:20:22.138Z,20.30
2023-01-01T15:22:50.448Z,24.53
2023-01-01T15:25:19.675Z,19.43
2023-01-01T15:27:53.987Z,24.27
2023-01-01T15:30:33.754Z,23.00
2023-01-01T15:33:09.016Z,26.20
2023-01-01T15:35:38.090Z,25.37
2023-01-01T15:38:34.300Z,40.93
2023-01-01T15:41:40.414Z,42.77
2023-01-01T15:44:29.709Z,32.27
2023-01-01T15:47:15.701Z,30.10
2023-01-01T15:49:42.675Z,24.20
2023-01-01T15:52:29.414Z,24.70
2023-01-01T15:54:56.369Z,29.23
2023-01-01T15:57:24.165Z,30.73
2023-01-01T15:59:53.667Z,28.70
2023-01-01T16:02:36.444Z,76.90
2023-01-01T16:05:03.700Z,52.00
2023-01-01T16:07:31.748Z,35.03
2023-01-01T16:09:58.720Z,31.10
2023-01-01T16:12:25.717Z,32.97
2023-01-01T16:14:52.601Z,29.83
2023-01-01T16:17:20.800Z,29.60
2023-01-01T16:19:48.443Z,29.53
2023-01-01T16:22:17.611Z,28.77
2023-01-01T16:24:45.906Z,30.90
2023-01-01T16:27:13.075Z,28.00
2023-01-01T16:29:43.331Z,32.60
2023-01-01T16:32:18.484Z,27.70
2023-01-01T16:34:45.464Z,26.10
2023-01-01T16:37:12.471Z,27.60
2023-01-01T16:39:39.429Z,25.93
2023-01-01T16:42:09.768Z,30.83
2023-01-01T16:44:41.189Z,29.20
2023-01-01T16:47:08.643Z,33.07
2023-01-01T16:49:35.823Z,29.43
2023-01-01T16:52:03.305Z,28.47
2023-01-01T16:54:30.238Z,28.40
2023-01-01T16:56:57.225Z,31.90
2023-01-01T16:59:24.445Z,34.30
2023-01-01T17:01:51.453Z,31.80
2023-01-01T17:04:18.567Z,31.40
2023-01-01T17:06:45.568Z,33.93
2023-01-01T17:09:13.556Z,34.67
2023-01-01T17:11:40.877Z,35.83
2023-01-01T17:14:10.439Z,36.23
2023-01-01T17:16:40.007Z,36.57
2023-01-01T17:19:16.804Z,35.10
2023-01-01T17:21:46.389Z,38.20
2023-01-01T17:24:15.562Z,34.03
2023-01-01T17:26:43.180Z,32.73
2023-01-01T17:29:11.860Z,32.63
2023-01-01T17:31:38.911Z,33.53
2023-01-01T17:34:05.925Z,31.50
2023-01-01T17:36:32.906Z,38.67
2023-01-01T17:38:59.828Z,32.87
2023-01-01T17:41:26.737Z,31.80
2023-01-01T17:43:53.792Z,37.77
2023-01-01T17:46:33.514Z,33.83
2023-01-01T17:49:01.479Z,38.27
2023-01-01T17:51:28.955Z,34.43
2023-01-01T17:53:56.721Z,30.97
2023-01-01T17:56:24.819Z,25.20
2023-01-01T17:58:53.672Z,28.57
2023-01-01T18:01:23.772Z,26.33
2023-01-01T18:03:57.377Z,29.83
2023-01-01T18:06:24.628Z,28.53
2023-01-01T18:08:56.501Z,31.17
2023-01-01T18:11:24.071Z,28.33
2023-01-01T18:13:51.206Z,27.57
2023-01-01T18:16:18.391Z,29.53
2023-01-01T18:18:45.377Z,21.97
2023-01-01T18:21:19.379Z,25.07
2023-01-01T18:23:47.542Z,24.53
2023-01-01T18:26:14.616Z,21.17
2023-01-01T18:28:41.873Z,19.47
2023-01-01T18:31:10.085Z,20.03
2023-01-01T18:33:38.099Z,19.40
2023-01-01T18:36:12.069Z,20.63
2023-01-01T18:38:42.453Z,23.00
2023-01-01T18:41:33.973Z,20.07
2023-01-01T18:44:00.972Z,21.67
2023-01-01T18:46:32.744Z,18.50
2023-01-01T18:49:00.679Z,19.77
2023-01-01T18:51:27.688Z,32.10
2023-01-01T18:53:59.287Z,23.63
2023-01-01T18:56:26.574Z,18.30
2023-01-01T18:58:56.433Z,19.23
2023-01-01T19:01:24.796Z,22.97
2023-01-01T19:03:56.698Z,21.00
2023-01-01T19:06:31.363Z,18.97
2023-01-01T19:09:24.262Z,18.40
2023-01-01T19:11:54.178Z,20.93
2023-01-01T19:14:24.409Z,22.20
2023-01-01T19:16:57.801Z,18.70
2023-01-01T19:19:26.707Z,25.83
2023-01-01T19:22:13.372Z,20.67
2023-01-01T19:24:43.345Z,17.73
2023-01-01T19:27:18.221Z,18.20
2023-01-01T19:29:47.940Z,20.03
2023-01-01T19:32:15.467Z,17.30
2023-01-01T19:34:42.483Z,19.43
2023-01-01T19:37:10.005Z,19.73
2023-01-01T19:39:38.754Z,20.73
2023-01-01T19:42:07.050Z,18.90
2023-01-01T19:44:35.713Z,19.60
2023-01-01T19:47:06.364Z,20.53
2023-01-01T19:49:33.376Z,17.50
2023-01-01T19:52:00.331Z,17.63
2023-01-01T19:54:27.297Z,20.00
2023-01-01T19:56:54.214Z,21.60
2023-01-01T19:59:21.204Z,19.37
2023-01-01T20:02:09.960Z,20.90
2023-01-01T20:04:35.139Z,17.87
2023-01-01T20:07:02.073Z,21.57
2023-01-01T20:09:29.068Z,20.17
2023-01-01T20:11:56.660Z,20.90
2023-01-01T20:14:23.582Z,20.33
2023-01-01T20:16:53.613Z,19.43
2023-01-01T20:19:20.621Z,18.07
2023-01-01T20:22:05.589Z,16.37
2023-01-01T20:24:32.508Z,17.10
2023-01-01T20:27:01.393Z,16.40
2023-01-01T20:29:28.473Z,16.70
2023-01-01T20:31:56.076Z,15.80
2023-01-01T20:34:23.657Z,18.57
2023-01-01T20:37:09.901Z,15.33
2023-01-01T20:39:37.051Z,13.97
2023-01-01T20:42:04.175Z,14.30
2023-01-01T20:44:31.123Z,13.97
2023-01-01T20:46:58.278Z,15.23
2023-01-01T20:49:25.207Z,13.87
2023-01-01T20:51:53.365Z,12.87
2023-01-01T20:54:22.473Z,14.40
2023-01-01T20:56:50.084Z,14.93
2023-01-01T20:59:34.657Z,16.70
2023-01-01T21:02:02.362Z,19.30
2023-01-01T21:04:29.463Z,21.63
2023-01-01T21:06:56.519Z,17.87
2023-01-01T21:09:23.411Z,16.97
2023-01-01T21:11:50.474Z,19.70
2023-01-01T21:14:19.954Z,21.37
2023-01-01T21:16:47.103Z,23.37
2023-01-01T21:19:14.358Z,15.37
2023-01-01T21:21:50.229Z,14.53
2023-01-01T21:24:26.533Z,16.63
2023-01-01T21:27:15.392Z,14.10
2023-01-01T21:29:51.462Z,14.80
2023-01-01T21:32:39.106Z,15.03
2023-01-01T21:35:35.111Z,14.70
2023-01-01T21:38:16.066Z,14.17
2023-01-01T21:40:55.116Z,17.03
2023-01-01T21:43:50.244Z,15.53
2023-01-01T21:46:24.759Z,15.10
2023-01-01T21:49:06.024Z,17.37
2023-01-01T21:51:43.321Z,17.17
2023-01-01T21:54:10.442Z,13.90
2023-01-01T21:56:40.447Z,16.10
2023-01-01T21:59:25.869Z,15.00
2023-01-01T22:02:07.826Z,16.53
2023-01-01T22:04:42.510Z,14.30
2023-01-01T22:10:40.067Z,14.03
2023-01-01T22:13:15.407Z,12.93
2023-01-01T22:15:42.804Z,12.50
2023-01-01T22:18:09.671Z,12.57
2023-01-01T22:20:40.652Z,12.87
2023-01-01T22:23:19.504Z,21.07
2023-01-01T22:25:47.793Z,21.73
2023-01-01T22:28:24.047Z,20.23
2023-01-01T22:31:01.099Z,15.20
2023-01-01T22:33:42.680Z,13.10
2023-01-01T22:36:23.060Z,11.80
2023-01-01T22:38:50.146Z,10.90
2023-01-01T22:41:17.022Z,13.67
2023-01-01T22:43:45.908Z,10.13
2023-01-01T22:46:34.898Z,11.37
2023-01-01T22:49:37.303Z,11.20
2023-01-01T22:52:05.048Z,10.23
2023-01-01T22:54:33.715Z,10.10
2023-01-01T22:57:00.649Z,8.90
2023-01-01T22:59:27.623Z,9.33
2023-01-01T23:01:54.668Z,9.20
2023-01-01T23:04:21.583Z,8.97
2023-01-01T23:06:48.711Z,8.80
2023-01-01T23:09:15.586Z,8.50
2023-01-01T23:11:42.481Z,8.63
2023-01-01T23:14:27.702Z,8.83
2023-01-01T23:16:54.727Z,10.37
2023-01-01T23:19:21.782Z,9.47
2023-01-01T23:21:48.843Z,8.27
2023-01-01T23:24:19.783Z,9.17
2023-01-01T23:26:48.085Z,9.40
2023-01-01T23:29:15.881Z,11.60
2023-01-01T23:31:43.869Z,11.33
2023-01-01T23:34:11.980Z,10.10
2023-01-01T23:36:39.718Z,9.80
2023-01-01T23:39:06.684Z,9.60
2023-01-01T23:41:33.594Z,10.97
2023-01-01T23:44:00.610Z,10.43
2023-01-01T23:46:27.641Z,9.73
2023-01-01T23:48:55.448Z,9.47
2023-01-01T23:51:22.417Z,11.10
2023-01-01T23:53:49.391Z,9.73
2023-01-01T23:56:16.439Z,11.23
2023-01-01T23:58:43.305Z,10.27
